Hamoa, HI

12:00 PM HST die 23o March, anno 2017 (GMT -1000)
Hana High & Elementary, Haiku | | Change Station

Elev 113 ft 20.78 °N, 156.00 °W | Updated 46 seconds ago

Aequaliter Nubila
Aequaliter Nubila
75.9 °F
Feels Like 77 °F
N
0.0
Ventus Variabilis Ventus from Eurus
Gusts 0.0 mph

Hodie
High -- | Low -- °F
--% Chance of Precip.
Yesterday
High -- | Low -- °F
Precip. -- in
Pressio 30.14 in
Visibilitas 10.0 milia passuum
Clouds Nubes Dispersae 3000 ft
Nubes Dispersae 5000 ft
Index Caloris 77 °F
Frigus in quo Ros apparet 67 °F
Umor 74%
Rainfall 0.00 in
Snow Depth Not available.
6:24 AM 6:36 PM
Waning Crescent, 20% visible
METAR PHOG 232154Z 06012G19KT 10SM SCT030 SCT050 29/20 A3013 RMK AO2 SLP207 T02890200
Pressio 30.14 in
Visibilitas 10.0 milia passuum
Clouds Nubes Dispersae 3000 ft
Nubes Dispersae 5000 ft
Index Caloris 77 °F
Frigus in quo Ros apparet 67 °F
Umor 74%
Rainfall 0.00 in
Snow Depth Not available.
6:24 AM 6:36 PM
Waning Crescent, 20% visible
METAR PHOG 232154Z 06012G19KT 10SM SCT030 SCT050 29/20 A3013 RMK AO2 SLP207 T02890200

Get Severe Weather Alerts

Thanks for signing up!

Be on the lookout for a verification email in your inbox.

You'll start receiving the daily forecast at 8 AM.

×

10-Day Weather Forecast

Almanac

Astronomy

Mar. 23, 2017 Rise Set
Actual Time
Civil Twilight
Nautical Twilight
Astronomical Twilight
Moon
Length Of Visible Light
Length of Day
Tomorrow will be .
, % of the Moon is Illuminated

Today's Extremes

State Highs State Lows

Community

WunderPhotos

Upload Photos

1,962,540 photos uploaded!

WunderBlog® & News

Nearby

Air Quality

  Air Quality AQ Index Pollutant
Not available.

Snow Depth

Station Depth Elevation

Earthquake Activity

City Distance Mag. Time & Date
Minimum magnitude displayed is 2.5.

Earthquake Activity

City Distance Mag. Time & Date
Minimum magnitude displayed is 2.5.

Coastal Water Temperatures

Locus Calor

Stations

Nearby Weather Stations

Station Location Temp Frigus Venti Frigus in quo Ros apparet Umor Ventus Precip. Elev Renovata Type
                   

Watches & Warnings

There are currently no watches in effect.